sensor_id;sensor_type;location;lat;lon;timestamp;P1;durP1;ratioP1;P2;durP2;ratioP2
12719;SDS011;6424;48.520;11.228;2022-10-16T00:02:15;2.47;;;1.47;;
12719;SDS011;6424;48.520;11.228;2022-10-16T00:04:56;1.57;;;1.30;;
12719;SDS011;6424;48.520;11.228;2022-10-16T00:07:37;2.80;;;1.43;;
12719;SDS011;6424;48.520;11.228;2022-10-16T00:10:18;7.13;;;1.53;;
12719;SDS011;6424;48.520;11.228;2022-10-16T00:12:59;4.20;;;1.20;;
12719;SDS011;6424;48.520;11.228;2022-10-16T00:15:25;2.50;;;1.43;;
12719;SDS011;6424;48.520;11.228;2022-10-16T00:18:06;2.67;;;1.20;;
12719;SDS011;6424;48.520;11.228;2022-10-16T00:20:47;2.00;;;1.20;;
12719;SDS011;6424;48.520;11.228;2022-10-16T00:23:27;1.53;;;1.20;;
12719;SDS011;6424;48.520;11.228;2022-10-16T00:26:10;1.83;;;1.40;;
12719;SDS011;6424;48.520;11.228;2022-10-16T00:28:52;2.17;;;1.40;;
12719;SDS011;6424;48.520;11.228;2022-10-16T00:31:33;3.73;;;1.40;;
12719;SDS011;6424;48.520;11.228;2022-10-16T00:34:14;2.67;;;1.20;;
12719;SDS011;6424;48.520;11.228;2022-10-16T00:36:55;1.17;;;1.07;;
12719;SDS011;6424;48.520;11.228;2022-10-16T00:39:36;1.63;;;1.20;;
12719;SDS011;6424;48.520;11.228;2022-10-16T00:42:18;6.33;;;1.70;;
12719;SDS011;6424;48.520;11.228;2022-10-16T00:44:58;1.53;;;1.20;;
12719;SDS011;6424;48.520;11.228;2022-10-16T00:47:40;3.77;;;1.30;;
12719;SDS011;6424;48.520;11.228;2022-10-16T00:50:29;2.40;;;1.40;;
12719;SDS011;6424;48.520;11.228;2022-10-16T00:53:13;1.30;;;1.20;;
12719;SDS011;6424;48.520;11.228;2022-10-16T00:55:54;5.53;;;1.30;;
12719;SDS011;6424;48.520;11.228;2022-10-16T00:58:35;2.53;;;1.20;;
12719;SDS011;6424;48.520;11.228;2022-10-16T01:01:16;1.70;;;1.40;;
12719;SDS011;6424;48.520;11.228;2022-10-16T01:03:57;4.40;;;1.10;;
12719;SDS011;6424;48.520;11.228;2022-10-16T01:06:41;2.90;;;1.23;;
12719;SDS011;6424;48.520;11.228;2022-10-16T01:09:47;2.40;;;1.30;;
12719;SDS011;6424;48.520;11.228;2022-10-16T01:21:13;2.83;;;1.10;;
12719;SDS011;6424;48.520;11.228;2022-10-16T01:33:26;5.57;;;1.57;;
12719;SDS011;6424;48.520;11.228;2022-10-16T01:36:09;3.00;;;1.10;;
12719;SDS011;6424;48.520;11.228;2022-10-16T01:38:54;2.63;;;1.10;;
12719;SDS011;6424;48.520;11.228;2022-10-16T01:41:31;1.70;;;1.00;;
12719;SDS011;6424;48.520;11.228;2022-10-16T01:46:46;2.30;;;1.30;;
12719;SDS011;6424;48.520;11.228;2022-10-16T01:49:30;1.60;;;1.13;;
12719;SDS011;6424;48.520;11.228;2022-10-16T01:52:15;4.03;;;1.37;;
12719;SDS011;6424;48.520;11.228;2022-10-16T01:55:00;1.87;;;1.40;;
12719;SDS011;6424;48.520;11.228;2022-10-16T01:57:46;1.20;;;1.10;;
12719;SDS011;6424;48.520;11.228;2022-10-16T02:00:32;3.17;;;1.20;;
12719;SDS011;6424;48.520;11.228;2022-10-16T02:03:17;2.90;;;1.10;;
12719;SDS011;6424;48.520;11.228;2022-10-16T02:05:54;3.67;;;1.33;;
12719;SDS011;6424;48.520;11.228;2022-10-16T02:08:37;1.57;;;1.47;;
12719;SDS011;6424;48.520;11.228;2022-10-16T02:11:20;4.53;;;1.20;;
12719;SDS011;6424;48.520;11.228;2022-10-16T02:14:02;3.93;;;1.30;;
12719;SDS011;6424;48.520;11.228;2022-10-16T02:16:45;2.07;;;1.30;;
12719;SDS011;6424;48.520;11.228;2022-10-16T02:19:27;1.27;;;1.10;;
12719;SDS011;6424;48.520;11.228;2022-10-16T02:22:08;4.93;;;1.47;;
12719;SDS011;6424;48.520;11.228;2022-10-16T02:24:56;1.30;;;1.20;;
12719;SDS011;6424;48.520;11.228;2022-10-16T02:27:55;1.53;;;1.20;;
12719;SDS011;6424;48.520;11.228;2022-10-16T02:31:04;1.57;;;1.17;;
12719;SDS011;6424;48.520;11.228;2022-10-16T02:33:51;1.57;;;1.17;;
12719;SDS011;6424;48.520;11.228;2022-10-16T02:36:34;2.80;;;1.17;;
12719;SDS011;6424;48.520;11.228;2022-10-16T02:39:17;1.53;;;1.30;;
12719;SDS011;6424;48.520;11.228;2022-10-16T02:41:59;1.83;;;1.20;;
12719;SDS011;6424;48.520;11.228;2022-10-16T02:44:40;1.90;;;1.40;;
12719;SDS011;6424;48.520;11.228;2022-10-16T02:47:21;2.30;;;1.33;;
12719;SDS011;6424;48.520;11.228;2022-10-16T02:49:47;4.00;;;1.60;;
12719;SDS011;6424;48.520;11.228;2022-10-16T02:52:28;2.00;;;1.70;;
12719;SDS011;6424;48.520;11.228;2022-10-16T02:55:09;3.30;;;1.70;;
12719;SDS011;6424;48.520;11.228;2022-10-16T02:57:49;5.23;;;1.50;;
12719;SDS011;6424;48.520;11.228;2022-10-16T03:00:30;3.00;;;1.30;;
12719;SDS011;6424;48.520;11.228;2022-10-16T03:03:11;1.57;;;1.20;;
12719;SDS011;6424;48.520;11.228;2022-10-16T03:05:52;4.63;;;1.53;;
12719;SDS011;6424;48.520;11.228;2022-10-16T03:08:33;2.20;;;1.50;;
12719;SDS011;6424;48.520;11.228;2022-10-16T03:11:14;3.93;;;1.30;;
12719;SDS011;6424;48.520;11.228;2022-10-16T03:13:54;1.77;;;1.40;;
12719;SDS011;6424;48.520;11.228;2022-10-16T03:16:20;2.23;;;1.60;;
12719;SDS011;6424;48.520;11.228;2022-10-16T03:19:01;3.37;;;1.53;;
12719;SDS011;6424;48.520;11.228;2022-10-16T03:21:42;5.27;;;1.57;;
12719;SDS011;6424;48.520;11.228;2022-10-16T03:24:23;1.47;;;1.37;;
12719;SDS011;6424;48.520;11.228;2022-10-16T03:27:04;4.20;;;1.20;;
12719;SDS011;6424;48.520;11.228;2022-10-16T03:29:44;1.97;;;1.57;;
12719;SDS011;6424;48.520;11.228;2022-10-16T03:32:25;5.13;;;1.50;;
12719;SDS011;6424;48.520;11.228;2022-10-16T03:35:08;1.63;;;1.33;;
12719;SDS011;6424;48.520;11.228;2022-10-16T03:37:49;2.20;;;1.40;;
12719;SDS011;6424;48.520;11.228;2022-10-16T03:40:30;3.30;;;1.37;;
12719;SDS011;6424;48.520;11.228;2022-10-16T03:43:12;2.47;;;1.33;;
12719;SDS011;6424;48.520;11.228;2022-10-16T03:45:53;1.30;;;1.20;;
12719;SDS011;6424;48.520;11.228;2022-10-16T03:48:33;3.70;;;1.50;;
12719;SDS011;6424;48.520;11.228;2022-10-16T03:51:14;1.77;;;1.60;;
12719;SDS011;6424;48.520;11.228;2022-10-16T03:53:55;3.90;;;1.20;;
12719;SDS011;6424;48.520;11.228;2022-10-16T03:56:36;3.87;;;1.43;;
12719;SDS011;6424;48.520;11.228;2022-10-16T03:59:17;2.80;;;1.40;;
12719;SDS011;6424;48.520;11.228;2022-10-16T04:01:58;2.00;;;1.50;;
12719;SDS011;6424;48.520;11.228;2022-10-16T04:04:39;2.20;;;1.23;;
12719;SDS011;6424;48.520;11.228;2022-10-16T04:07:19;2.33;;;1.20;;
12719;SDS011;6424;48.520;11.228;2022-10-16T04:10:00;1.40;;;1.30;;
12719;SDS011;6424;48.520;11.228;2022-10-16T04:12:41;2.97;;;1.30;;
12719;SDS011;6424;48.520;11.228;2022-10-16T04:15:25;1.87;;;1.27;;
12719;SDS011;6424;48.520;11.228;2022-10-16T04:18:06;1.30;;;1.10;;
12719;SDS011;6424;48.520;11.228;2022-10-16T04:20:32;3.13;;;1.33;;
12719;SDS011;6424;48.520;11.228;2022-10-16T04:23:13;2.73;;;1.60;;
12719;SDS011;6424;48.520;11.228;2022-10-16T04:25:54;2.33;;;1.30;;
12719;SDS011;6424;48.520;11.228;2022-10-16T04:28:35;2.60;;;1.40;;
12719;SDS011;6424;48.520;11.228;2022-10-16T04:31:05;3.10;;;1.67;;
12719;SDS011;6424;48.520;11.228;2022-10-16T04:33:31;3.67;;;1.40;;
12719;SDS011;6424;48.520;11.228;2022-10-16T04:36:12;6.80;;;1.70;;
12719;SDS011;6424;48.520;11.228;2022-10-16T04:38:53;4.43;;;1.50;;
12719;SDS011;6424;48.520;11.228;2022-10-16T04:41:34;1.70;;;1.60;;
12719;SDS011;6424;48.520;11.228;2022-10-16T04:44:15;2.37;;;1.33;;
12719;SDS011;6424;48.520;11.228;2022-10-16T04:46:56;5.40;;;1.80;;
12719;SDS011;6424;48.520;11.228;2022-10-16T04:49:36;2.80;;;1.30;;
12719;SDS011;6424;48.520;11.228;2022-10-16T04:52:02;2.67;;;1.30;;
12719;SDS011;6424;48.520;11.228;2022-10-16T04:54:43;2.80;;;1.57;;
12719;SDS011;6424;48.520;11.228;2022-10-16T04:57:25;1.87;;;1.33;;
12719;SDS011;6424;48.520;11.228;2022-10-16T05:00:07;2.13;;;1.60;;
12719;SDS011;6424;48.520;11.228;2022-10-16T05:02:51;2.40;;;1.30;;
12719;SDS011;6424;48.520;11.228;2022-10-16T05:05:32;3.77;;;1.50;;
12719;SDS011;6424;48.520;11.228;2022-10-16T05:08:14;2.10;;;1.40;;
12719;SDS011;6424;48.520;11.228;2022-10-16T05:10:56;4.97;;;1.60;;
12719;SDS011;6424;48.520;11.228;2022-10-16T05:13:37;1.53;;;1.43;;
12719;SDS011;6424;48.520;11.228;2022-10-16T05:16:17;2.03;;;1.30;;
12719;SDS011;6424;48.520;11.228;2022-10-16T05:18:58;1.53;;;1.30;;
12719;SDS011;6424;48.520;11.228;2022-10-16T05:21:24;3.90;;;1.73;;
12719;SDS011;6424;48.520;11.228;2022-10-16T05:24:05;2.83;;;1.40;;
12719;SDS011;6424;48.520;11.228;2022-10-16T05:26:31;1.50;;;1.40;;
12719;SDS011;6424;48.520;11.228;2022-10-16T05:29:11;3.80;;;1.60;;
12719;SDS011;6424;48.520;11.228;2022-10-16T05:31:37;3.53;;;1.70;;
12719;SDS011;6424;48.520;11.228;2022-10-16T05:34:18;4.80;;;1.50;;
12719;SDS011;6424;48.520;11.228;2022-10-16T05:37:00;3.00;;;2.10;;
12719;SDS011;6424;48.520;11.228;2022-10-16T05:39:26;3.03;;;1.70;;
12719;SDS011;6424;48.520;11.228;2022-10-16T05:42:06;2.67;;;1.83;;
12719;SDS011;6424;48.520;11.228;2022-10-16T05:44:32;2.07;;;1.60;;
12719;SDS011;6424;48.520;11.228;2022-10-16T05:47:13;3.33;;;1.47;;
12719;SDS011;6424;48.520;11.228;2022-10-16T05:49:39;2.27;;;1.50;;
12719;SDS011;6424;48.520;11.228;2022-10-16T05:52:20;2.97;;;1.63;;
12719;SDS011;6424;48.520;11.228;2022-10-16T05:55:01;1.67;;;1.57;;
12719;SDS011;6424;48.520;11.228;2022-10-16T05:57:27;1.67;;;1.57;;
12719;SDS011;6424;48.520;11.228;2022-10-16T06:00:08;3.30;;;2.03;;
12719;SDS011;6424;48.520;11.228;2022-10-16T06:02:50;3.07;;;1.80;;
12719;SDS011;6424;48.520;11.228;2022-10-16T06:05:30;4.80;;;2.10;;
12719;SDS011;6424;48.520;11.228;2022-10-16T06:08:11;2.17;;;1.97;;
12719;SDS011;6424;48.520;11.228;2022-10-16T06:11:02;1.70;;;1.60;;
12719;SDS011;6424;48.520;11.228;2022-10-16T06:13:44;2.50;;;1.77;;
12719;SDS011;6424;48.520;11.228;2022-10-16T06:16:29;2.40;;;1.77;;
12719;SDS011;6424;48.520;11.228;2022-10-16T06:19:09;3.10;;;1.60;;
12719;SDS011;6424;48.520;11.228;2022-10-16T06:21:50;1.90;;;1.70;;
12719;SDS011;6424;48.520;11.228;2022-10-16T06:24:31;3.00;;;1.70;;
12719;SDS011;6424;48.520;11.228;2022-10-16T06:27:12;5.17;;;2.00;;
12719;SDS011;6424;48.520;11.228;2022-10-16T06:29:53;2.37;;;1.60;;
12719;SDS011;6424;48.520;11.228;2022-10-16T06:32:34;2.17;;;1.90;;
12719;SDS011;6424;48.520;11.228;2022-10-16T06:35:15;1.60;;;1.50;;
12719;SDS011;6424;48.520;11.228;2022-10-16T06:37:56;3.63;;;1.80;;
12719;SDS011;6424;48.520;11.228;2022-10-16T06:40:36;1.60;;;1.50;;
12719;SDS011;6424;48.520;11.228;2022-10-16T06:43:17;2.20;;;2.00;;
12719;SDS011;6424;48.520;11.228;2022-10-16T06:45:59;3.10;;;2.10;;
12719;SDS011;6424;48.520;11.228;2022-10-16T06:48:41;2.23;;;1.97;;
12719;SDS011;6424;48.520;11.228;2022-10-16T06:51:23;2.10;;;1.90;;
12719;SDS011;6424;48.520;11.228;2022-10-16T06:53:50;2.33;;;2.00;;
12719;SDS011;6424;48.520;11.228;2022-10-16T06:56:33;1.60;;;1.33;;
12719;SDS011;6424;48.520;11.228;2022-10-16T06:59:14;1.97;;;1.77;;
12719;SDS011;6424;48.520;11.228;2022-10-16T07:01:55;1.57;;;1.47;;
12719;SDS011;6424;48.520;11.228;2022-10-16T07:04:36;1.60;;;1.50;;
12719;SDS011;6424;48.520;11.228;2022-10-16T07:07:16;2.10;;;1.73;;
12719;SDS011;6424;48.520;11.228;2022-10-16T07:09:57;2.80;;;1.63;;
12719;SDS011;6424;48.520;11.228;2022-10-16T07:12:38;3.13;;;1.50;;
12719;SDS011;6424;48.520;11.228;2022-10-16T07:15:19;4.70;;;1.67;;
12719;SDS011;6424;48.520;11.228;2022-10-16T07:17:59;3.17;;;2.00;;
12719;SDS011;6424;48.520;11.228;2022-10-16T07:20:40;1.60;;;1.50;;
12719;SDS011;6424;48.520;11.228;2022-10-16T07:23:21;1.30;;;1.20;;
12719;SDS011;6424;48.520;11.228;2022-10-16T07:26:02;1.73;;;1.60;;
12719;SDS011;6424;48.520;11.228;2022-10-16T07:28:44;3.50;;;1.50;;
12719;SDS011;6424;48.520;11.228;2022-10-16T07:31:25;2.37;;;1.50;;
12719;SDS011;6424;48.520;11.228;2022-10-16T07:34:06;1.90;;;1.70;;
12719;SDS011;6424;48.520;11.228;2022-10-16T07:36:47;1.60;;;1.40;;
12719;SDS011;6424;48.520;11.228;2022-10-16T07:39:17;2.97;;;1.70;;
12719;SDS011;6424;48.520;11.228;2022-10-16T07:41:58;2.00;;;1.80;;
12719;SDS011;6424;48.520;11.228;2022-10-16T07:44:38;5.97;;;2.70;;
12719;SDS011;6424;48.520;11.228;2022-10-16T07:47:20;2.13;;;1.87;;
12719;SDS011;6424;48.520;11.228;2022-10-16T07:50:00;3.33;;;1.50;;
12719;SDS011;6424;48.520;11.228;2022-10-16T07:52:41;1.40;;;1.30;;
12719;SDS011;6424;48.520;11.228;2022-10-16T07:55:07;2.53;;;1.70;;
12719;SDS011;6424;48.520;11.228;2022-10-16T07:57:48;3.10;;;1.80;;
12719;SDS011;6424;48.520;11.228;2022-10-16T08:00:29;2.43;;;1.70;;
12719;SDS011;6424;48.520;11.228;2022-10-16T08:03:10;2.27;;;1.70;;
12719;SDS011;6424;48.520;11.228;2022-10-16T08:05:51;5.90;;;1.83;;
12719;SDS011;6424;48.520;11.228;2022-10-16T08:08:32;2.87;;;2.67;;
12719;SDS011;6424;48.520;11.228;2022-10-16T08:11:13;3.43;;;2.03;;
12719;SDS011;6424;48.520;11.228;2022-10-16T08:13:54;4.33;;;1.30;;
12719;SDS011;6424;48.520;11.228;2022-10-16T08:16:35;2.97;;;1.73;;
12719;SDS011;6424;48.520;11.228;2022-10-16T08:19:16;3.27;;;1.70;;
12719;SDS011;6424;48.520;11.228;2022-10-16T08:21:57;2.23;;;1.60;;
12719;SDS011;6424;48.520;11.228;2022-10-16T08:24:38;3.33;;;1.70;;
12719;SDS011;6424;48.520;11.228;2022-10-16T08:27:19;2.10;;;1.50;;
12719;SDS011;6424;48.520;11.228;2022-10-16T08:29:59;3.33;;;1.60;;
12719;SDS011;6424;48.520;11.228;2022-10-16T08:32:40;3.50;;;1.60;;
12719;SDS011;6424;48.520;11.228;2022-10-16T08:35:22;1.90;;;1.57;;
12719;SDS011;6424;48.520;11.228;2022-10-16T08:38:03;2.60;;;1.50;;
12719;SDS011;6424;48.520;11.228;2022-10-16T08:40:44;2.30;;;1.70;;
12719;SDS011;6424;48.520;11.228;2022-10-16T08:43:42;1.77;;;1.57;;
12719;SDS011;6424;48.520;11.228;2022-10-16T08:46:46;1.53;;;1.30;;
12719;SDS011;6424;48.520;11.228;2022-10-16T08:49:21;2.73;;;1.37;;
12719;SDS011;6424;48.520;11.228;2022-10-16T08:52:04;2.27;;;2.00;;
12719;SDS011;6424;48.520;11.228;2022-10-16T08:54:53;3.63;;;1.90;;
12719;SDS011;6424;48.520;11.228;2022-10-16T08:57:35;3.43;;;1.63;;
12719;SDS011;6424;48.520;11.228;2022-10-16T09:00:16;2.53;;;1.30;;
12719;SDS011;6424;48.520;11.228;2022-10-16T09:06:07;1.90;;;1.30;;
12719;SDS011;6424;48.520;11.228;2022-10-16T09:23:28;1.40;;;1.30;;
12719;SDS011;6424;48.520;11.228;2022-10-16T09:26:11;1.43;;;1.00;;
12719;SDS011;6424;48.520;11.228;2022-10-16T09:28:54;1.37;;;1.10;;
12719;SDS011;6424;48.520;11.228;2022-10-16T09:31:35;3.50;;;1.10;;
12719;SDS011;6424;48.520;11.228;2022-10-16T09:34:20;2.57;;;1.10;;
12719;SDS011;6424;48.520;11.228;2022-10-16T09:37:17;1.67;;;1.00;;
12719;SDS011;6424;48.520;11.228;2022-10-16T09:39:59;2.03;;;1.20;;
12719;SDS011;6424;48.520;11.228;2022-10-16T09:42:40;2.87;;;1.20;;
12719;SDS011;6424;48.520;11.228;2022-10-16T09:45:21;1.37;;;1.23;;
12719;SDS011;6424;48.520;11.228;2022-10-16T09:47:49;1.83;;;1.17;;
12719;SDS011;6424;48.520;11.228;2022-10-16T09:50:23;2.03;;;1.03;;
12719;SDS011;6424;48.520;11.228;2022-10-16T09:53:13;1.50;;;1.10;;
12719;SDS011;6424;48.520;11.228;2022-10-16T09:55:55;4.03;;;1.27;;
12719;SDS011;6424;48.520;11.228;2022-10-16T09:58:35;1.07;;;0.87;;
12719;SDS011;6424;48.520;11.228;2022-10-16T10:01:17;1.30;;;1.17;;
12719;SDS011;6424;48.520;11.228;2022-10-16T10:03:59;1.40;;;1.20;;
12719;SDS011;6424;48.520;11.228;2022-10-16T10:06:52;1.00;;;0.90;;
12719;SDS011;6424;48.520;11.228;2022-10-16T10:09:38;1.60;;;1.10;;
12719;SDS011;6424;48.520;11.228;2022-10-16T10:12:21;1.20;;;0.90;;
12719;SDS011;6424;48.520;11.228;2022-10-16T10:15:06;1.37;;;0.93;;
12719;SDS011;6424;48.520;11.228;2022-10-16T10:17:52;1.13;;;1.00;;
12719;SDS011;6424;48.520;11.228;2022-10-16T10:20:37;1.20;;;0.80;;
12719;SDS011;6424;48.520;11.228;2022-10-16T10:26:03;2.90;;;1.00;;
12719;SDS011;6424;48.520;11.228;2022-10-16T10:29:00;1.30;;;1.00;;
12719;SDS011;6424;48.520;11.228;2022-10-16T10:31:51;1.57;;;1.00;;
12719;SDS011;6424;48.520;11.228;2022-10-16T10:46:13;1.27;;;1.00;;
12719;SDS011;6424;48.520;11.228;2022-10-16T10:54:49;0.83;;;0.80;;
12719;SDS011;6424;48.520;11.228;2022-10-16T10:57:40;1.00;;;0.90;;
12719;SDS011;6424;48.520;11.228;2022-10-16T11:06:40;1.90;;;1.07;;
12719;SDS011;6424;48.520;11.228;2022-10-16T11:09:44;6.53;;;1.10;;
12719;SDS011;6424;48.520;11.228;2022-10-16T11:12:33;2.17;;;1.00;;
12719;SDS011;6424;48.520;11.228;2022-10-16T11:18:16;3.67;;;1.07;;
12719;SDS011;6424;48.520;11.228;2022-10-16T11:21:04;1.67;;;0.90;;
12719;SDS011;6424;48.520;11.228;2022-10-16T11:23:53;1.13;;;0.87;;
12719;SDS011;6424;48.520;11.228;2022-10-16T11:26:41;1.10;;;1.00;;
12719;SDS011;6424;48.520;11.228;2022-10-16T11:29:26;1.37;;;0.77;;
12719;SDS011;6424;48.520;11.228;2022-10-16T11:32:16;1.10;;;1.00;;
12719;SDS011;6424;48.520;11.228;2022-10-16T11:34:48;1.00;;;0.87;;
12719;SDS011;6424;48.520;11.228;2022-10-16T11:37:36;2.10;;;0.83;;
12719;SDS011;6424;48.520;11.228;2022-10-16T11:40:25;4.33;;;1.23;;
12719;SDS011;6424;48.520;11.228;2022-10-16T11:43:39;2.10;;;1.10;;
12719;SDS011;6424;48.520;11.228;2022-10-16T11:46:21;1.80;;;0.97;;
12719;SDS011;6424;48.520;11.228;2022-10-16T11:52:23;1.47;;;0.97;;
12719;SDS011;6424;48.520;11.228;2022-10-16T11:54:55;1.93;;;1.03;;
12719;SDS011;6424;48.520;11.228;2022-10-16T11:57:32;3.13;;;1.20;;
12719;SDS011;6424;48.520;11.228;2022-10-16T12:00:19;1.97;;;1.00;;
12719;SDS011;6424;48.520;11.228;2022-10-16T12:03:39;3.03;;;0.87;;
12719;SDS011;6424;48.520;11.228;2022-10-16T12:09:26;2.80;;;1.20;;
12719;SDS011;6424;48.520;11.228;2022-10-16T12:18:03;1.07;;;0.90;;
12719;SDS011;6424;48.520;11.228;2022-10-16T12:20:44;1.40;;;0.90;;
12719;SDS011;6424;48.520;11.228;2022-10-16T12:23:54;2.40;;;0.90;;
12719;SDS011;6424;48.520;11.228;2022-10-16T12:26:39;0.80;;;0.73;;
12719;SDS011;6424;48.520;11.228;2022-10-16T12:29:34;3.03;;;0.90;;
12719;SDS011;6424;48.520;11.228;2022-10-16T12:35:22;0.90;;;0.63;;
12719;SDS011;6424;48.520;11.228;2022-10-16T12:43:42;2.40;;;0.80;;
12719;SDS011;6424;48.520;11.228;2022-10-16T12:51:54;1.07;;;0.70;;
12719;SDS011;6424;48.520;11.228;2022-10-16T12:54:36;2.87;;;0.90;;
12719;SDS011;6424;48.520;11.228;2022-10-16T13:00:32;0.70;;;0.70;;
12719;SDS011;6424;48.520;11.228;2022-10-16T13:03:44;2.47;;;1.00;;
12719;SDS011;6424;48.520;11.228;2022-10-16T13:06:38;4.23;;;0.97;;
12719;SDS011;6424;48.520;11.228;2022-10-16T13:09:22;1.10;;;0.97;;
12719;SDS011;6424;48.520;11.228;2022-10-16T13:17:45;1.73;;;0.83;;
12719;SDS011;6424;48.520;11.228;2022-10-16T13:21:04;0.80;;;0.80;;
12719;SDS011;6424;48.520;11.228;2022-10-16T13:24:11;0.70;;;0.70;;
12719;SDS011;6424;48.520;11.228;2022-10-16T13:27:25;1.33;;;0.90;;
12719;SDS011;6424;48.520;11.228;2022-10-16T13:30:29;4.43;;;0.67;;
12719;SDS011;6424;48.520;11.228;2022-10-16T13:33:53;1.87;;;0.90;;
12719;SDS011;6424;48.520;11.228;2022-10-16T13:36:56;2.00;;;0.80;;
12719;SDS011;6424;48.520;11.228;2022-10-16T13:39:26;3.70;;;1.00;;
12719;SDS011;6424;48.520;11.228;2022-10-16T13:42:15;2.47;;;0.83;;
12719;SDS011;6424;48.520;11.228;2022-10-16T13:45:00;1.10;;;0.67;;
12719;SDS011;6424;48.520;11.228;2022-10-16T13:47:41;1.37;;;0.70;;
12719;SDS011;6424;48.520;11.228;2022-10-16T13:50:22;0.70;;;0.70;;
12719;SDS011;6424;48.520;11.228;2022-10-16T13:53:06;2.00;;;0.87;;
12719;SDS011;6424;48.520;11.228;2022-10-16T13:55:38;0.97;;;0.73;;
12719;SDS011;6424;48.520;11.228;2022-10-16T13:58:19;2.83;;;0.90;;
12719;SDS011;6424;48.520;11.228;2022-10-16T14:01:01;1.43;;;0.83;;
12719;SDS011;6424;48.520;11.228;2022-10-16T14:03:59;1.30;;;0.80;;
12719;SDS011;6424;48.520;11.228;2022-10-16T14:06:30;0.80;;;0.67;;
12719;SDS011;6424;48.520;11.228;2022-10-16T14:09:07;0.70;;;0.70;;
12719;SDS011;6424;48.520;11.228;2022-10-16T14:11:59;1.00;;;0.80;;
12719;SDS011;6424;48.520;11.228;2022-10-16T14:14:46;1.57;;;0.80;;
12719;SDS011;6424;48.520;11.228;2022-10-16T14:17:30;1.00;;;0.80;;
12719;SDS011;6424;48.520;11.228;2022-10-16T14:20:15;2.23;;;0.90;;
12719;SDS011;6424;48.520;11.228;2022-10-16T14:29:01;2.50;;;0.90;;
12719;SDS011;6424;48.520;11.228;2022-10-16T14:31:58;0.90;;;0.70;;
12719;SDS011;6424;48.520;11.228;2022-10-16T14:34:52;1.50;;;0.80;;
12719;SDS011;6424;48.520;11.228;2022-10-16T14:37:34;1.07;;;0.80;;
12719;SDS011;6424;48.520;11.228;2022-10-16T14:40:15;1.30;;;1.00;;
12719;SDS011;6424;48.520;11.228;2022-10-16T14:42:56;1.17;;;0.90;;
12719;SDS011;6424;48.520;11.228;2022-10-16T14:45:38;2.07;;;0.90;;
12719;SDS011;6424;48.520;11.228;2022-10-16T14:48:21;2.20;;;0.90;;
12719;SDS011;6424;48.520;11.228;2022-10-16T14:51:04;1.93;;;0.97;;
12719;SDS011;6424;48.520;11.228;2022-10-16T14:53:49;1.10;;;0.90;;
12719;SDS011;6424;48.520;11.228;2022-10-16T14:56:52;1.67;;;0.80;;
12719;SDS011;6424;48.520;11.228;2022-10-16T14:59:39;1.80;;;0.80;;
12719;SDS011;6424;48.520;11.228;2022-10-16T15:02:27;2.27;;;0.90;;
12719;SDS011;6424;48.520;11.228;2022-10-16T15:05:23;0.80;;;0.80;;
12719;SDS011;6424;48.520;11.228;2022-10-16T15:08:06;1.13;;;0.97;;
12719;SDS011;6424;48.520;11.228;2022-10-16T15:10:47;1.90;;;0.70;;
12719;SDS011;6424;48.520;11.228;2022-10-16T15:13:28;2.40;;;1.13;;
12719;SDS011;6424;48.520;11.228;2022-10-16T15:16:13;1.30;;;1.00;;
12719;SDS011;6424;48.520;11.228;2022-10-16T15:18:55;1.17;;;1.07;;
12719;SDS011;6424;48.520;11.228;2022-10-16T15:21:36;1.00;;;0.80;;
12719;SDS011;6424;48.520;11.228;2022-10-16T15:24:02;2.40;;;1.00;;
12719;SDS011;6424;48.520;11.228;2022-10-16T15:26:42;2.67;;;1.40;;
12719;SDS011;6424;48.520;11.228;2022-10-16T15:29:25;2.17;;;1.30;;
12719;SDS011;6424;48.520;11.228;2022-10-16T15:32:08;4.27;;;1.30;;
12719;SDS011;6424;48.520;11.228;2022-10-16T15:34:50;2.27;;;1.30;;
12719;SDS011;6424;48.520;11.228;2022-10-16T15:37:31;2.93;;;1.40;;
12719;SDS011;6424;48.520;11.228;2022-10-16T15:40:11;2.13;;;1.20;;
12719;SDS011;6424;48.520;11.228;2022-10-16T15:42:52;2.33;;;1.30;;
12719;SDS011;6424;48.520;11.228;2022-10-16T15:45:33;2.63;;;2.20;;
12719;SDS011;6424;48.520;11.228;2022-10-16T15:48:14;4.43;;;3.77;;
12719;SDS011;6424;48.520;11.228;2022-10-16T15:50:55;5.03;;;2.57;;
12719;SDS011;6424;48.520;11.228;2022-10-16T15:53:35;3.37;;;2.20;;
12719;SDS011;6424;48.520;11.228;2022-10-16T15:56:16;2.70;;;1.33;;
12719;SDS011;6424;48.520;11.228;2022-10-16T15:58:57;1.60;;;1.37;;
12719;SDS011;6424;48.520;11.228;2022-10-16T16:01:38;1.57;;;1.23;;
12719;SDS011;6424;48.520;11.228;2022-10-16T16:04:19;2.00;;;1.23;;
12719;SDS011;6424;48.520;11.228;2022-10-16T16:07:00;3.87;;;1.20;;
12719;SDS011;6424;48.520;11.228;2022-10-16T16:09:41;2.23;;;1.00;;
12719;SDS011;6424;48.520;11.228;2022-10-16T16:12:24;2.50;;;1.10;;
12719;SDS011;6424;48.520;11.228;2022-10-16T16:15:05;1.27;;;1.17;;
12719;SDS011;6424;48.520;11.228;2022-10-16T16:17:48;4.53;;;3.27;;
12719;SDS011;6424;48.520;11.228;2022-10-16T16:20:29;2.73;;;2.50;;
12719;SDS011;6424;48.520;11.228;2022-10-16T16:23:10;2.83;;;2.53;;
12719;SDS011;6424;48.520;11.228;2022-10-16T16:25:36;2.03;;;1.80;;
12719;SDS011;6424;48.520;11.228;2022-10-16T16:28:17;3.23;;;1.60;;
12719;SDS011;6424;48.520;11.228;2022-10-16T16:30:58;3.67;;;1.33;;
12719;SDS011;6424;48.520;11.228;2022-10-16T16:33:39;2.17;;;1.80;;
12719;SDS011;6424;48.520;11.228;2022-10-16T16:36:05;3.90;;;1.90;;
12719;SDS011;6424;48.520;11.228;2022-10-16T16:38:46;1.90;;;1.80;;
12719;SDS011;6424;48.520;11.228;2022-10-16T16:41:16;2.10;;;1.90;;
12719;SDS011;6424;48.520;11.228;2022-10-16T16:44:02;1.80;;;1.50;;
12719;SDS011;6424;48.520;11.228;2022-10-16T16:46:45;3.30;;;2.20;;
12719;SDS011;6424;48.520;11.228;2022-10-16T16:49:26;3.67;;;2.60;;
12719;SDS011;6424;48.520;11.228;2022-10-16T16:52:07;2.67;;;2.40;;
12719;SDS011;6424;48.520;11.228;2022-10-16T16:54:48;3.93;;;2.53;;
12719;SDS011;6424;48.520;11.228;2022-10-16T16:57:31;4.10;;;2.10;;
12719;SDS011;6424;48.520;11.228;2022-10-16T17:00:12;2.30;;;1.70;;
12719;SDS011;6424;48.520;11.228;2022-10-16T17:02:53;4.53;;;1.70;;
12719;SDS011;6424;48.520;11.228;2022-10-16T17:05:19;4.03;;;1.70;;
12719;SDS011;6424;48.520;11.228;2022-10-16T17:08:00;3.30;;;1.70;;
12719;SDS011;6424;48.520;11.228;2022-10-16T17:10:44;3.80;;;1.50;;
12719;SDS011;6424;48.520;11.228;2022-10-16T17:13:27;4.30;;;1.80;;
12719;SDS011;6424;48.520;11.228;2022-10-16T17:16:10;2.73;;;1.30;;
12719;SDS011;6424;48.520;11.228;2022-10-16T17:18:51;3.07;;;2.10;;
12719;SDS011;6424;48.520;11.228;2022-10-16T17:21:33;3.17;;;1.70;;
12719;SDS011;6424;48.520;11.228;2022-10-16T17:24:15;2.17;;;1.47;;
12719;SDS011;6424;48.520;11.228;2022-10-16T17:26:57;6.17;;;1.83;;
12719;SDS011;6424;48.520;11.228;2022-10-16T17:29:38;2.13;;;1.63;;
12719;SDS011;6424;48.520;11.228;2022-10-16T17:32:19;5.53;;;1.83;;
12719;SDS011;6424;48.520;11.228;2022-10-16T17:35:00;3.70;;;1.50;;
12719;SDS011;6424;48.520;11.228;2022-10-16T17:37:41;2.43;;;1.33;;
12719;SDS011;6424;48.520;11.228;2022-10-16T17:40:23;2.27;;;1.50;;
12719;SDS011;6424;48.520;11.228;2022-10-16T17:43:05;2.77;;;1.43;;
12719;SDS011;6424;48.520;11.228;2022-10-16T17:45:47;2.47;;;1.20;;
12719;SDS011;6424;48.520;11.228;2022-10-16T17:48:28;2.57;;;1.40;;
12719;SDS011;6424;48.520;11.228;2022-10-16T17:50:54;2.87;;;1.73;;
12719;SDS011;6424;48.520;11.228;2022-10-16T17:53:35;1.57;;;1.33;;
12719;SDS011;6424;48.520;11.228;2022-10-16T17:56:16;1.30;;;1.20;;
12719;SDS011;6424;48.520;11.228;2022-10-16T17:58:58;1.50;;;1.40;;
12719;SDS011;6424;48.520;11.228;2022-10-16T18:01:40;1.70;;;1.17;;
12719;SDS011;6424;48.520;11.228;2022-10-16T18:04:24;5.67;;;1.47;;
12719;SDS011;6424;48.520;11.228;2022-10-16T18:07:05;2.37;;;1.60;;
12719;SDS011;6424;48.520;11.228;2022-10-16T18:09:31;3.30;;;1.50;;